CheckWX is a tool to help pilots better visualize weather data.  It is not intended as a substitute for an official pre-flight weather briefing.

03:06:12 UTC

KBDL METAR
Bradley International Airport
Windsor Locks, Connecticut, USA
Current

15 mins ago

KBDL 230251Z 18007KT 10SM FEW220 BKN250 21/16 A2998 RMK AO2 SLP152 T02110161 58008
Observed
Sep-23 @ 02:51 UTC
Wind
  • 180° at 7 KTS
Visibility
10 SM
Flight Rules
VFR
Cloud Levels
  • Few at 22,000' AGL
  • Broken at 25,000' AGL
Temperature
21°C / 70°F
Dewpoint
16°C / 61°F
Humidity
73%
Altimeter
29.98" Hg
Pressure
1015.22 hPa
Previous

1 hour ago

KBDL 230151Z 17007KT 10SM FEW220 BKN250 22/16 A3000 RMK AO2 SLP158 T02170156
Observed
Sep-23 @ 01:51 UTC
Wind
  • 170° at 7 KTS
Visibility
10 SM
Flight Rules
VFR
Cloud Levels
  • Few at 22,000' AGL
  • Broken at 25,000' AGL
Temperature
22°C / 72°F
Dewpoint
16°C / 61°F
Humidity
69%
Altimeter
30" Hg
Pressure
1015.92 hPa
Previous

2 hours ago

KBDL 230051Z 19006KT 10SM FEW200 SCT250 23/16 A3001 RMK AO2 SLP162 T02280161
Observed
Sep-23 @ 00:51 UTC
Wind
  • 190° at 6 KTS
Visibility
10 SM
Flight Rules
VFR
Cloud Levels
  • Few at 20,000' AGL
  • Scattered at 25,000' AGL
Temperature
23°C / 73°F
Dewpoint
16°C / 61°F
Humidity
65%
Altimeter
30.01" Hg
Pressure
1016.22 hPa